Time;durP1;ratioP1;P1;durP2;ratioP2;P2;SDS_P1;SDS_P2;PMS_P1;PMS_P2;Temp;Humidity;BMP_temperature;BMP_pressure;BME280_temperature;BME280_humidity;BME280_pressure;Samples;Min_cycle;Max_cycle;Signal;HPM_P1;HPM_P2
2021/09/15 00:02:23;;;;;;;8.13;5.03;;;;;;;15.62;95.25;101277.47;4957650;28;20035;-80
2021/09/15 00:04:48;;;;;;;7.47;4.80;;;;;;;15.56;95.35;101278.97;4954258;29;20106;-80
2021/09/15 00:07:14;;;;;;;9.48;4.85;;;;;;;15.57;95.65;101272.69;4956074;28;20049;-79
2021/09/15 00:09:39;;;;;;;5.85;4.63;;;;;;;15.56;94.80;101271.03;4956969;28;20485;-80
2021/09/15 00:12:05;;;;;;;5.30;4.40;;;;;;;15.57;94.45;101267.38;4957839;28;20070;-83
2021/09/15 00:14:30;;;;;;;6.43;4.60;;;;;;;15.60;95.44;101268.06;4956745;28;20030;-81
2021/09/15 00:16:56;;;;;;;7.82;4.47;;;;;;;15.52;95.84;101264.44;4940141;28;20402;-83
2021/09/15 00:19:22;;;;;;;10.27;4.50;;;;;;;15.53;94.75;101257.31;4944615;28;20468;-82
2021/09/15 00:21:47;;;;;;;7.30;4.80;;;;;;;15.56;95.32;101255.19;4936452;28;20556;-81
2021/09/15 00:24:13;;;;;;;6.30;5.20;;;;;;;15.53;94.62;101255.50;4954220;28;20035;-81
2021/09/15 00:26:38;;;;;;;7.82;4.95;;;;;;;15.51;95.04;101256.66;4938166;29;20034;-83
2021/09/15 00:29:10;;;;;;;8.30;5.00;;;;;;;15.47;95.95;101261.47;4969870;28;20034;-81
2021/09/15 00:31:35;;;;;;;6.93;4.63;;;;;;;15.37;96.05;101250.25;4956273;28;20377;-80
2021/09/15 00:34:01;;;;;;;6.22;4.60;;;;;;;15.40;96.68;101264.94;4956901;28;20031;-81
2021/09/15 00:36:26;;;;;;;6.38;4.90;;;;;;;15.46;95.73;101272.19;4944197;28;20516;-85
2021/09/15 00:38:52;;;;;;;9.35;5.20;;;;;;;15.42;95.96;101262.94;4940166;28;20472;-81
2021/09/15 00:41:17;;;;;;;8.52;5.20;;;;;;;15.43;96.23;101248.75;4953250;28;20119;-82
2021/09/15 00:44:09;;;;;;;7.13;4.82;;;;;;;15.42;96.31;101249.72;4940985;28;20035;-81
2021/09/15 00:46:38;;;;;;;7.57;5.30;;;;;;;15.45;97.00;101238.84;4941039;28;20046;-80
2021/09/15 00:49:05;;;;;;;10.02;5.00;;;;;;;15.33;96.43;101219.81;4940580;28;20118;-81
2021/09/15 00:51:35;;;;;;;8.85;5.22;;;;;;;15.39;96.03;101221.81;4939402;28;20137;-81
2021/09/15 00:54:00;;;;;;;8.02;5.10;;;;;;;15.36;95.69;101216.88;4951587;28;20118;-81
2021/09/15 00:56:38;;;;;;;13.07;5.18;;;;;;;15.42;95.61;101218.00;4943531;28;20494;-81
2021/09/15 00:59:05;;;;;;;9.60;5.32;;;;;;;15.39;95.75;101227.13;4959477;28;20039;-81
2021/09/15 01:01:31;;;;;;;7.18;5.03;;;;;;;15.42;95.40;101225.94;4954824;28;20043;-80
2021/09/15 01:04:02;;;;;;;8.55;5.10;;;;;;;15.47;95.98;101231.56;4955493;28;20026;-81
2021/09/15 01:06:32;;;;;;;9.02;5.30;;;;;;;15.43;96.11;101225.78;4936106;29;20031;-81
2021/09/15 01:09:00;;;;;;;6.70;4.82;;;;;;;15.38;95.98;101218.34;4953585;28;20067;-81
2021/09/15 01:11:29;;;;;;;9.05;5.10;;;;;;;15.38;96.31;101220.97;4950670;28;20565;-81
2021/09/15 01:14:09;;;;;;;10.27;5.30;;;;;;;15.41;96.56;101211.91;4969750;23;20045;-75
2021/09/15 01:17:08;;;;;;;5.50;4.90;;;;;;;15.39;95.96;101208.63;5005321;28;20063;-80
2021/09/15 01:20:01;;;;;;;8.45;5.30;;;;;;;15.36;96.91;101207.09;5012663;28;20108;-75
2021/09/15 01:22:45;;;;;;;8.25;5.07;;;;;;;15.32;96.86;101208.44;4999663;28;20112;-81
2021/09/15 01:25:18;;;;;;;7.82;4.50;;;;;;;15.31;97.28;101206.81;4978951;28;20061;-75
2021/09/15 01:28:03;;;;;;;10.02;5.43;;;;;;;15.27;97.52;101205.47;5003889;28;20444;-75
2021/09/15 01:30:39;;;;;;;9.38;5.40;;;;;;;15.26;98.20;101205.66;5007255;28;20070;-77
2021/09/15 01:33:09;;;;;;;8.90;5.38;;;;;;;15.21;97.93;101205.31;5006614;28;20068;-77
2021/09/15 01:35:34;;;;;;;8.20;5.03;;;;;;;15.19;98.85;101203.66;4990106;28;20045;-76
2021/09/15 01:38:00;;;;;;;7.68;5.03;;;;;;;15.24;98.81;101204.97;5011951;28;20029;-77
2021/09/15 01:40:25;;;;;;;7.95;5.78;;;;;;;15.17;98.21;101204.81;4979071;28;20037;-76
2021/09/15 01:42:51;;;;;;;7.47;5.35;;;;;;;15.21;97.80;101207.97;4973098;28;20557;-76
2021/09/15 01:45:17;;;;;;;8.23;5.75;;;;;;;15.19;97.59;101214.22;4999011;28;20055;-76
2021/09/15 01:47:43;;;;;;;9.48;5.57;;;;;;;15.25;97.41;101210.09;4993503;28;20044;-76
2021/09/15 01:50:09;;;;;;;9.52;5.72;;;;;;;15.31;97.59;101205.97;5028924;28;20505;-77
2021/09/15 01:52:35;;;;;;;7.78;5.95;;;;;;;15.23;97.28;101198.84;4990656;28;20040;-76
2021/09/15 01:55:18;;;;;;;7.60;5.70;;;;;;;15.28;97.57;101201.03;4976746;28;20033;-75
2021/09/15 01:57:44;;;;;;;10.13;5.80;;;;;;;15.22;98.00;101191.09;4975593;28;20049;-78
2021/09/15 02:00:29;;;;;;;6.57;5.60;;;;;;;15.12;99.04;101194.72;5002588;28;20075;-75
2021/09/15 02:03:12;;;;;;;9.18;6.43;;;;;;;15.14;98.13;101187.50;4994498;28;20507;-76
2021/09/15 02:05:52;;;;;;;10.05;6.15;;;;;;;15.17;98.63;101192.41;4995061;28;20095;-76
2021/09/15 02:08:28;;;;;;;6.15;5.47;;;;;;;15.16;98.65;101182.84;4979773;28;20504;-76
2021/09/15 02:11:34;;;;;;;10.25;6.40;;;;;;;15.16;98.42;101184.66;4988195;28;20034;-76
2021/09/15 02:14:03;;;;;;;12.43;6.28;;;;;;;15.13;98.76;101185.00;5019716;28;20073;-77
2021/09/15 02:16:30;;;;;;;7.65;5.82;;;;;;;15.12;98.86;101186.78;4989691;28;20041;-77
2021/09/15 02:18:56;;;;;;;6.95;5.90;;;;;;;15.14;99.01;101182.19;4993990;28;20532;-76
2021/09/15 02:21:40;;;;;;;12.52;6.70;;;;;;;15.14;98.88;101187.50;4993012;28;20037;-76
2021/09/15 02:24:26;;;;;;;10.85;6.78;;;;;;;15.10;98.71;101177.41;5011123;28;20555;-76
2021/09/15 02:27:10;;;;;;;8.60;6.38;;;;;;;15.08;99.15;101182.84;4984759;28;20116;-77
2021/09/15 02:29:35;;;;;;;9.02;6.53;;;;;;;15.08;99.37;101182.84;5007247;28;20176;-76
2021/09/15 02:32:12;;;;;;;8.50;6.25;;;;;;;15.09;99.25;101178.41;4979756;28;20044;-77
2021/09/15 02:34:56;;;;;;;11.30;7.30;;;;;;;15.15;99.39;101175.09;5006643;28;20033;-77
2021/09/15 02:37:40;;;;;;;9.00;6.78;;;;;;;15.13;98.13;101171.78;5010599;28;20760;-77
2021/09/15 02:40:29;;;;;;;10.82;7.22;;;;;;;15.13;99.28;101180.53;4999187;28;20439;-75
2021/09/15 02:43:16;;;;;;;12.30;6.90;;;;;;;15.06;99.17;101163.69;5010963;28;20510;-77
2021/09/15 02:45:57;;;;;;;8.35;6.63;;;;;;;15.07;99.43;101162.72;4981341;28;20039;-76
2021/09/15 02:48:49;;;;;;;9.85;6.65;;;;;;;15.09;99.97;101168.66;4996335;28;20037;-76
2021/09/15 02:51:25;;;;;;;9.13;7.18;;;;;;;15.03;100.00;101168.47;4976582;28;20047;-76
2021/09/15 02:54:11;;;;;;;13.23;7.07;;;;;;;15.01;100.00;101181.84;4996551;28;20099;-74
2021/09/15 02:56:43;;;;;;;12.30;7.63;;;;;;;14.97;100.00;101172.59;4996694;28;20200;-76
2021/09/15 02:59:11;;;;;;;10.20;7.60;;;;;;;14.98;100.00;101169.00;5014497;28;20379;-76
2021/09/15 03:01:51;;;;;;;13.85;7.70;;;;;;;14.95;100.00;101170.13;4979266;28;20038;-75
2021/09/15 03:04:25;;;;;;;12.70;7.68;;;;;;;14.89;100.00;101169.97;4979304;28;20581;-75
2021/09/15 03:07:00;;;;;;;10.40;7.40;;;;;;;14.86;100.00;101172.94;4989487;28;20036;-75
2021/09/15 03:09:33;;;;;;;10.75;7.50;;;;;;;14.82;100.00;101158.41;4982893;28;20040;-77
2021/09/15 03:11:59;;;;;;;12.73;8.02;;;;;;;14.82;100.00;101161.88;4989072;28;20033;-77
2021/09/15 03:14:24;;;;;;;11.40;7.20;;;;;;;14.85;100.00;101160.72;4979576;28;20091;-78
2021/09/15 03:16:50;;;;;;;13.93;7.80;;;;;;;14.87;100.00;101153.47;5011482;28;20048;-75
2021/09/15 03:19:16;;;;;;;9.35;7.90;;;;;;;14.83;100.00;101146.88;4997798;28;20760;-79
2021/09/15 03:21:41;;;;;;;11.82;8.45;;;;;;;14.79;100.00;101141.91;5012311;28;20485;-75
2021/09/15 03:24:09;;;;;;;13.50;9.13;;;;;;;14.70;100.00;101140.25;5035492;28;20061;-76
2021/09/15 03:26:35;;;;;;;16.83;9.35;;;;;;;14.66;100.00;101138.94;5019056;28;20047;-79
2021/09/15 03:29:00;;;;;;;13.50;8.50;;;;;;;14.58;100.00;101128.38;5007380;28;20386;-77
2021/09/15 03:31:28;;;;;;;13.40;8.70;;;;;;;14.50;100.00;101138.88;4996198;28;20080;-76
2021/09/15 03:33:54;;;;;;;13.70;9.15;;;;;;;14.51;100.00;101146.63;4995660;28;20030;-74
2021/09/15 03:36:19;;;;;;;11.70;8.45;;;;;;;14.51;100.00;101148.44;5028502;28;20096;-76
2021/09/15 03:38:45;;;;;;;13.10;8.85;;;;;;;14.50;100.00;101138.88;4994513;28;20097;-77
2021/09/15 03:41:11;;;;;;;14.27;8.93;;;;;;;14.54;100.00;101138.41;4994687;28;20034;-76
2021/09/15 03:43:36;;;;;;;10.65;8.70;;;;;;;14.56;100.00;101136.41;5010034;28;20030;-78
2021/09/15 03:46:04;;;;;;;11.48;9.13;;;;;;;14.53;100.00;101143.84;5007627;28;20524;-76
2021/09/15 03:48:30;;;;;;;10.95;9.05;;;;;;;14.40;100.00;101139.84;4997860;28;20057;-78
2021/09/15 03:50:56;;;;;;;14.10;9.15;;;;;;;14.32;100.00;101141.66;5010488;28;20038;-77
2021/09/15 03:53:23;;;;;;;13.73;9.68;;;;;;;14.35;100.00;101128.97;5010941;28;20042;-79
2021/09/15 03:55:48;;;;;;;14.50;9.55;;;;;;;14.31;100.00;101124.16;4994329;28;20092;-76
2021/09/15 03:58:14;;;;;;;14.65;9.60;;;;;;;14.31;100.00;101126.78;5001844;28;20480;-76
2021/09/15 04:00:40;;;;;;;12.38;9.77;;;;;;;14.36;100.00;101113.94;5013819;28;20050;-76
2021/09/15 04:03:05;;;;;;;13.80;9.40;;;;;;;14.41;100.00;101106.38;4994503;28;20029;-75
2021/09/15 04:05:31;;;;;;;12.00;9.05;;;;;;;14.43;100.00;101096.47;4994742;28;20041;-75
2021/09/15 04:07:57;;;;;;;12.40;9.25;;;;;;;14.37;100.00;101097.97;4993955;28;20458;-73
2021/09/15 04:10:23;;;;;;;12.68;9.52;;;;;;;14.37;100.00;101094.47;5013722;28;20068;-76
2021/09/15 04:12:49;;;;;;;13.05;9.57;;;;;;;14.39;100.00;101087.22;5009439;28;20764;-76
2021/09/15 04:15:14;;;;;;;13.88;10.30;;;;;;;14.41;100.00;101078.16;5014265;28;20329;-77
2021/09/15 04:17:41;;;;;;;19.67;9.85;;;;;;;14.40;100.00;101076.50;4996370;28;20036;-76
2021/09/15 04:20:08;;;;;;;15.43;9.68;;;;;;;14.42;100.00;101092.19;5012494;28;20037;-76
2021/09/15 04:22:36;;;;;;;14.40;9.73;;;;;;;14.43;100.00;101093.00;5012040;28;20065;-75
2021/09/15 04:33:16;;;;;;;16.95;10.07;;;;;;;14.34;100.00;101093.00;5000514;28;20111;-76
2021/09/15 04:35:42;;;;;;;13.48;10.07;;;;;;;14.28;100.00;101083.09;5017350;28;20042;-75
2021/09/15 04:38:07;;;;;;;15.73;9.93;;;;;;;14.28;100.00;101083.09;4978346;28;20068;-76
2021/09/15 04:40:33;;;;;;;16.33;10.20;;;;;;;14.28;100.00;101079.59;4977734;28;20038;-74
2021/09/15 04:42:59;;;;;;;13.25;10.38;;;;;;;14.26;100.00;101089.50;4993414;28;20032;-76
2021/09/15 04:45:25;;;;;;;12.90;10.00;;;;;;;14.20;100.00;101088.34;4979641;28;20072;-78
2021/09/15 04:47:51;;;;;;;13.40;9.25;;;;;;;14.21;100.00;101090.00;4996222;28;20923;-77
2021/09/15 04:50:17;;;;;;;15.70;9.85;;;;;;;14.18;100.00;101085.03;5011473;28;20124;-75
2021/09/15 04:52:43;;;;;;;16.48;10.65;;;;;;;14.17;100.00;101073.66;5006774;28;20124;-76
2021/09/15 04:55:09;;;;;;;11.93;10.23;;;;;;;14.17;100.00;101076.31;4984579;28;20026;-76
2021/09/15 04:57:35;;;;;;;15.32;10.38;;;;;;;14.19;100.00;101069.06;4982716;28;20037;-74
2021/09/15 05:00:00;;;;;;;15.40;11.05;;;;;;;14.25;100.00;101067.56;5003512;28;20052;-75
2021/09/15 05:02:26;;;;;;;12.73;10.30;;;;;;;14.21;100.00;101060.97;4988497;28;20582;-76
2021/09/15 05:04:52;;;;;;;15.07;10.35;;;;;;;14.25;100.00;101066.75;5012603;28;20845;-76
2021/09/15 05:07:26;;;;;;;12.75;10.00;;;;;;;14.19;100.00;101061.13;4994482;28;20092;-76
2021/09/15 05:09:52;;;;;;;11.00;9.65;;;;;;;14.17;100.00;101059.66;4976936;28;20041;-77
2021/09/15 05:12:18;;;;;;;15.82;10.85;;;;;;;14.19;100.00;101060.31;4977922;28;20124;-76
2021/09/15 05:14:45;;;;;;;12.30;10.07;;;;;;;14.26;100.00;101065.75;5019860;28;20075;-75
2021/09/15 05:17:12;;;;;;;17.90;10.43;;;;;;;14.20;100.00;101059.31;4992549;28;20033;-77
2021/09/15 05:19:38;;;;;;;14.45;10.20;;;;;;;14.23;100.00;101052.91;4981434;28;20029;-75
2021/09/15 05:22:05;;;;;;;14.70;10.43;;;;;;;14.23;100.00;101056.38;5006850;28;20386;-77
2021/09/15 05:24:32;;;;;;;16.80;10.75;;;;;;;14.26;100.00;101047.28;5002608;28;20372;-75
2021/09/15 05:26:58;;;;;;;19.05;10.82;;;;;;;14.28;100.00;101043.53;4997978;28;20187;-78
2021/09/15 05:29:24;;;;;;;14.13;10.73;;;;;;;14.32;100.00;101055.38;5010620;28;20044;-78
2021/09/15 05:31:49;;;;;;;21.23;10.85;;;;;;;14.33;100.00;101049.09;5032588;28;20049;-76
2021/09/15 05:34:15;;;;;;;15.20;9.82;;;;;;;14.40;100.00;101051.94;5031916;28;20025;-76
2021/09/15 05:36:41;;;;;;;16.05;10.38;;;;;;;14.43;100.00;101062.16;5031153;28;20131;-77
2021/09/15 05:39:09;;;;;;;16.83;11.02;;;;;;;14.49;100.00;101063.31;5012400;28;20175;-75
2021/09/15 05:41:35;;;;;;;11.38;9.57;;;;;;;14.56;100.00;101072.22;5027904;28;20124;-76
2021/09/15 05:44:06;;;;;;;15.45;10.32;;;;;;;14.53;100.00;101065.47;5013493;28;20033;-75
2021/09/15 05:46:32;;;;;;;15.48;10.38;;;;;;;14.55;100.00;101065.31;5008591;28;20502;-76
2021/09/15 05:48:57;;;;;;;17.40;11.00;;;;;;;14.59;100.00;101069.28;4994130;28;20037;-75
2021/09/15 05:51:24;;;;;;;14.82;11.02;;;;;;;14.56;100.00;101062.50;4996352;28;20124;-75
2021/09/15 05:53:54;;;;;;;14.55;10.18;;;;;;;14.58;100.00;101059.75;5013255;28;20033;-77
2021/09/15 05:56:22;;;;;;;15.73;10.45;;;;;;;14.63;100.00;101057.41;5012753;28;20049;-76
2021/09/15 05:58:47;;;;;;;14.77;10.50;;;;;;;14.60;100.00;101055.13;4994570;28;20069;-76
2021/09/15 06:01:13;;;;;;;14.57;11.02;;;;;;;14.64;100.00;101064.34;5007502;28;20842;-77
2021/09/15 06:03:39;;;;;;;16.98;10.40;;;;;;;14.60;100.00;101055.13;5011211;28;20156;-77
2021/09/15 06:06:37;;;;;;;17.30;10.75;;;;;;;14.65;100.00;101060.69;5011749;28;20045;-77
2021/09/15 06:09:10;;;;;;;14.48;10.55;;;;;;;14.71;100.00;101046.00;4987025;28;20034;-79
2021/09/15 06:11:36;;;;;;;12.98;10.20;;;;;;;14.71;100.00;101049.50;5009385;28;20759;-77
2021/09/15 06:14:04;;;;;;;14.80;10.27;;;;;;;14.75;100.00;101045.53;4994233;28;20037;-77
2021/09/15 06:16:30;;;;;;;12.75;10.15;;;;;;;14.79;100.00;101049.47;4978313;28;20478;-76
2021/09/15 06:18:56;;;;;;;15.93;9.65;;;;;;;14.80;100.00;101047.66;5005202;28;20033;-75
2021/09/15 06:21:44;;;;;;;13.07;9.90;;;;;;;14.82;100.00;101045.66;5006524;28;20045;-75
2021/09/15 06:24:26;;;;;;;11.60;9.52;;;;;;;14.90;100.00;101045.69;4982196;28;20525;-76
2021/09/15 06:26:53;;;;;;;14.50;10.10;;;;;;;14.91;100.00;101046.50;4978660;28;20041;-76
2021/09/15 06:29:19;;;;;;;15.95;10.18;;;;;;;14.91;100.00;101035.94;4995578;28;20037;-76
2021/09/15 06:31:48;;;;;;;13.73;9.80;;;;;;;14.93;100.00;101036.59;4981221;28;20510;-76
2021/09/15 06:34:19;;;;;;;15.30;10.15;;;;;;;14.88;100.00;101037.09;5014076;28;20053;-76
2021/09/15 06:36:45;;;;;;;15.13;10.20;;;;;;;14.85;100.00;101036.63;5013958;28;20034;-75
2021/09/15 06:39:11;;;;;;;12.35;9.95;;;;;;;14.86;100.00;101038.25;5012990;28;20030;-77
2021/09/15 06:41:37;;;;;;;13.70;10.38;;;;;;;14.84;100.00;101030.47;5011983;28;20049;-78
2021/09/15 06:44:08;;;;;;;16.10;9.70;;;;;;;14.82;100.00;101043.03;4981373;28;20040;-76
2021/09/15 06:46:33;;;;;;;14.75;10.50;;;;;;;14.85;100.00;101039.25;4976874;28;20038;-75
2021/09/15 06:48:59;;;;;;;12.95;10.88;;;;;;;14.86;100.00;101048.81;4980504;28;20120;-77
2021/09/15 06:51:24;;;;;;;17.73;10.13;;;;;;;14.83;100.00;101042.06;4992395;28;20132;-79
2021/09/15 06:53:50;;;;;;;15.15;10.57;;;;;;;14.85;100.00;101058.56;4977083;28;20033;-77
2021/09/15 06:56:16;;;;;;;12.27;10.50;;;;;;;14.89;100.00;101054.59;4976984;28;20057;-78
2021/09/15 06:58:41;;;;;;;12.95;10.07;;;;;;;14.90;100.00;101055.41;4992081;28;20029;-76
2021/09/15 07:01:07;;;;;;;14.80;10.25;;;;;;;14.92;100.00;101056.91;5000887;28;20033;-79
2021/09/15 07:03:32;;;;;;;18.23;10.55;;;;;;;14.96;100.00;101044.19;4996186;28;20037;-78
2021/09/15 07:06:01;;;;;;;32.42;12.27;;;;;;;14.98;100.00;101060.69;4995505;28;20958;-77
2021/09/15 07:08:27;;;;;;;26.10;11.70;;;;;;;15.00;100.00;101053.41;4993398;28;20105;-78
2021/09/15 07:10:52;;;;;;;20.45;10.32;;;;;;;15.02;100.00;101067.28;5010747;28;20049;-76
2021/09/15 07:13:18;;;;;;;22.65;10.50;;;;;;;15.05;100.00;101069.59;5012130;28;20046;-77
2021/09/15 07:15:44;;;;;;;11.20;10.00;;;;;;;15.07;100.00;101074.69;4976816;23;20050;-76
2021/09/15 07:18:10;;;;;;;16.13;10.10;;;;;;;15.10;100.00;101075.19;4956701;28;20046;-79
2021/09/15 07:20:36;;;;;;;12.13;9.93;;;;;;;15.09;100.00;101073.56;4959673;28;20870;-81
2021/09/15 07:23:02;;;;;;;12.70;10.43;;;;;;;15.14;100.00;101068.59;4958983;28;20038;-81
2021/09/15 07:25:27;;;;;;;12.32;9.20;;;;;;;15.19;100.00;101081.28;4975007;28;20057;-80
2021/09/15 07:27:55;;;;;;;11.75;9.52;;;;;;;15.13;100.00;101074.84;4973529;28;20030;-76
2021/09/15 07:30:21;;;;;;;12.38;9.50;;;;;;;15.12;100.00;101075.84;4940012;28;20066;-80
2021/09/15 07:32:47;;;;;;;14.65;9.63;;;;;;;15.14;100.00;101081.81;4923689;28;20035;-80
2021/09/15 07:35:13;;;;;;;12.27;8.90;;;;;;;15.16;100.00;101084.25;4923835;28;20135;-79
2021/09/15 07:37:40;;;;;;;11.40;9.38;;;;;;;15.16;100.00;101079.81;4927808;28;20035;-78
2021/09/15 07:40:07;;;;;;;14.00;9.10;;;;;;;15.20;100.00;101072.38;4931212;28;20236;-79
2021/09/15 07:42:33;;;;;;;13.63;9.93;;;;;;;15.22;100.00;101072.19;4963332;28;20064;-81
2021/09/15 07:44:59;;;;;;;14.80;10.40;;;;;;;15.25;100.00;101072.69;4964081;28;20043;-79
2021/09/15 07:47:24;;;;;;;11.00;9.57;;;;;;;15.26;100.00;101070.88;4948978;28;20428;-79
2021/09/15 07:49:50;;;;;;;14.90;9.98;;;;;;;15.23;100.00;101076.50;4963389;28;20072;-78
2021/09/15 07:52:16;;;;;;;12.60;10.05;;;;;;;15.18;100.00;101082.25;4962834;28;20042;-77
2021/09/15 07:54:42;;;;;;;14.95;10.52;;;;;;;15.12;100.00;101075.00;4964750;28;20018;-77
2021/09/15 07:57:08;;;;;;;13.00;10.52;;;;;;;15.09;100.00;101081.47;4965007;28;20073;-79
2021/09/15 07:59:34;;;;;;;17.27;10.55;;;;;;;15.05;100.00;101074.88;4963291;28;20052;-79
2021/09/15 08:02:00;;;;;;;16.15;11.10;;;;;;;15.01;100.00;101080.66;4962707;28;20640;-80
2021/09/15 08:04:25;;;;;;;16.23;11.02;;;;;;;14.99;100.00;101079.00;4962341;28;20583;-78
2021/09/15 08:06:51;;;;;;;16.02;11.20;;;;;;;14.99;100.00;101075.53;4964342;28;20553;-79
2021/09/15 08:09:17;;;;;;;15.80;10.60;;;;;;;15.03;100.00;101078.66;4962621;28;20046;-77
2021/09/15 08:11:43;;;;;;;14.80;10.15;;;;;;;15.05;100.00;101074.88;4960488;28;20123;-80
2021/09/15 08:14:08;;;;;;;15.68;11.40;;;;;;;15.08;100.00;101071.06;4972924;28;20026;-79
2021/09/15 08:16:34;;;;;;;18.25;11.32;;;;;;;15.14;100.00;101062.47;4968521;28;20403;-78
2021/09/15 08:19:02;;;;;;;17.52;11.60;;;;;;;15.23;100.00;101064.09;4963791;28;20098;-80
2021/09/15 08:21:30;;;;;;;14.15;10.63;;;;;;;15.37;100.00;101070.50;4958409;28;20038;-78
2021/09/15 08:23:56;;;;;;;18.10;11.50;;;;;;;15.43;100.00;101075.13;4974472;28;20053;-78
2021/09/15 08:26:21;;;;;;;15.48;11.18;;;;;;;15.55;100.00;101080.84;4986621;28;20305;-80
2021/09/15 08:28:47;;;;;;;15.02;10.82;;;;;;;15.59;100.00;101098.00;4965214;28;20043;-78
2021/09/15 08:31:13;;;;;;;14.32;11.18;;;;;;;15.63;100.00;101085.28;4964270;28;20030;-77
2021/09/15 08:33:39;;;;;;;13.98;11.43;;;;;;;15.65;100.00;101099.16;4974328;28;20034;-78
2021/09/15 08:36:05;;;;;;;16.20;11.40;;;;;;;15.75;100.00;101094.53;4974729;28;20034;-78
2021/09/15 08:38:31;;;;;;;16.73;11.60;;;;;;;15.83;100.00;101097.13;4974828;28;20038;-78
2021/09/15 08:40:57;;;;;;;15.02;10.98;;;;;;;15.87;100.00;101085.19;4970857;28;20039;-75
2021/09/15 08:43:23;;;;;;;17.25;11.43;;;;;;;15.84;100.00;101082.91;4983724;28;20514;-77
2021/09/15 08:45:49;;;;;;;12.73;11.43;;;;;;;15.89;100.00;101090.31;4958524;28;20038;-77
2021/09/15 08:48:18;;;;;;;14.98;11.63;;;;;;;15.95;100.00;101093.13;4965804;28;20115;-79
2021/09/15 08:50:50;;;;;;;13.32;10.77;;;;;;;15.97;100.00;101095.56;4986169;28;20045;-78
2021/09/15 08:53:17;;;;;;;16.00;11.60;;;;;;;16.01;100.00;101088.09;4970074;28;20125;-78
2021/09/15 08:55:46;;;;;;;14.05;10.98;;;;;;;16.09;100.00;101096.03;4957287;28;20050;-77
2021/09/15 08:58:16;;;;;;;16.38;10.98;;;;;;;16.10;100.00;101087.88;4956808;28;20105;-78
2021/09/15 09:00:43;;;;;;;15.32;11.52;;;;;;;16.13;100.00;101084.91;4956768;28;20030;-77
2021/09/15 09:03:08;;;;;;;15.43;11.23;;;;;;;16.20;100.00;101095.63;4954173;28;20037;-77
2021/09/15 09:05:35;;;;;;;15.43;11.80;;;;;;;16.20;100.00;101087.69;4977146;28;20037;-79
2021/09/15 09:08:00;;;;;;;11.98;10.68;;;;;;;16.21;100.00;101081.38;4961174;28;20097;-76
2021/09/15 09:10:34;;;;;;;16.73;12.18;;;;;;;16.14;100.00;101083.06;4941195;28;20030;-77
2021/09/15 09:12:59;;;;;;;16.95;12.10;;;;;;;16.13;100.00;101081.44;4957616;28;20511;-76
2021/09/15 09:15:27;;;;;;;16.67;11.40;;;;;;;16.12;100.00;101085.06;4957553;28;20034;-77
2021/09/15 09:18:02;;;;;;;16.02;12.35;;;;;;;16.18;100.00;101075.59;4962446;28;20041;-78
2021/09/15 09:20:31;;;;;;;16.02;12.07;;;;;;;16.20;100.00;101074.44;4991588;28;20037;-77
2021/09/15 09:23:16;;;;;;;15.15;12.02;;;;;;;16.19;100.00;101077.25;4941427;28;20126;-79
2021/09/15 09:25:54;;;;;;;18.60;13.05;;;;;;;16.25;100.00;101068.63;4956570;28;20056;-77
2021/09/15 09:28:29;;;;;;;16.95;11.82;;;;;;;16.27;100.00;101063.97;4956347;28;20120;-78
2021/09/15 09:30:57;;;;;;;16.98;12.48;;;;;;;16.22;100.00;101061.88;4940157;28;20030;-79
2021/09/15 09:33:24;;;;;;;17.70;12.32;;;;;;;16.20;100.00;101063.03;4956619;28;20483;-79
2021/09/15 09:35:56;;;;;;;15.82;11.73;;;;;;;16.13;100.00;101054.97;4941717;28;20050;-78
2021/09/15 09:38:34;;;;;;;16.60;11.40;;;;;;;16.07;100.00;101059.16;4942682;28;20049;-77
2021/09/15 09:41:03;;;;;;;19.63;14.02;;;;;;;16.02;100.00;101052.72;4958571;28;20046;-80
2021/09/15 09:43:32;;;;;;;20.00;13.82;;;;;;;15.94;100.00;101046.47;4958840;28;20042;-77
2021/09/15 09:45:58;;;;;;;21.75;13.75;;;;;;;15.94;100.00;101051.78;4937402;28;20034;-78
2021/09/15 09:48:29;;;;;;;19.50;13.63;;;;;;;15.96;100.00;101041.84;4957602;28;20048;-77
2021/09/15 09:50:55;;;;;;;16.83;13.88;;;;;;;15.94;100.00;101037.72;4957597;28;20521;-79
2021/09/15 09:53:21;;;;;;;16.15;13.65;;;;;;;15.90;100.00;101031.16;4963041;28;20046;-78
2021/09/15 09:55:48;;;;;;;17.52;12.98;;;;;;;15.89;100.00;101040.06;4974301;28;20046;-77
2021/09/15 09:58:16;;;;;;;18.05;12.73;;;;;;;15.90;100.00;101034.59;4959263;28;20076;-78
2021/09/15 10:00:43;;;;;;;18.45;13.90;;;;;;;15.91;100.00;101023.00;4940570;28;20066;-78
2021/09/15 10:03:09;;;;;;;19.55;14.38;;;;;;;15.95;100.00;101028.78;4990586;28;20034;-78
2021/09/15 10:05:34;;;;;;;19.50;14.23;;;;;;;15.85;100.00;101018.44;4958773;28;20411;-80
2021/09/15 10:08:01;;;;;;;18.20;14.23;;;;;;;15.81;100.00;101026.91;4974550;28;20038;-78
2021/09/15 10:10:29;;;;;;;18.30;14.18;;;;;;;15.83;100.00;101025.72;4957530;28;20171;-77
2021/09/15 10:12:56;;;;;;;18.30;15.85;;;;;;;15.84;100.00;101018.59;4958812;28;20133;-77
2021/09/15 10:15:22;;;;;;;21.45;15.13;;;;;;;15.75;100.00;101007.25;4958391;28;20026;-80
2021/09/15 10:17:51;;;;;;;25.73;16.23;;;;;;;15.87;100.00;101003.19;4950093;28;20046;-80
2021/09/15 10:20:28;;;;;;;22.08;16.92;;;;;;;15.96;100.00;100998.69;4970980;28;20034;-79
2021/09/15 10:22:56;;;;;;;25.30;16.67;;;;;;;16.02;100.00;100994.53;4959920;28;20038;-80
2021/09/15 10:25:39;;;;;;;23.92;16.73;;;;;;;16.06;100.00;100988.69;4960708;28;20407;-81
2021/09/15 10:28:09;;;;;;;19.48;14.35;;;;;;;16.15;100.00;100987.63;4945070;28;20434;-79
2021/09/15 10:30:51;;;;;;;20.70;15.52;;;;;;;16.24;100.00;100993.69;4961063;28;20483;-78
2021/09/15 10:33:35;;;;;;;24.77;16.83;;;;;;;16.31;100.00;100988.50;4980314;28;20038;-79
2021/09/15 10:36:22;;;;;;;21.83;15.35;;;;;;;16.37;100.00;100994.91;4947144;28;20534;-80
2021/09/15 10:38:50;;;;;;;23.42;16.02;;;;;;;16.37;100.00;100997.56;4929826;28;20091;-78
2021/09/15 10:41:31;;;;;;;21.38;16.35;;;;;;;16.40;100.00;100992.72;4948999;28;20049;-76
2021/09/15 10:44:04;;;;;;;23.40;15.30;;;;;;;16.45;100.00;101000.16;4970186;28;20031;-77
2021/09/15 10:46:31;;;;;;;21.70;15.02;;;;;;;16.46;100.00;100989.38;4986565;28;20035;-78
2021/09/15 10:49:18;;;;;;;19.67;16.73;;;;;;;16.53;100.00;100989.47;4978804;28;20034;-81
2021/09/15 10:51:46;;;;;;;20.75;15.13;;;;;;;16.52;100.00;100993.94;4978605;28;20070;-78
2021/09/15 10:54:55;;;;;;;25.52;14.77;;;;;;;16.54;100.00;100997.25;4980518;28;20058;-77
2021/09/15 10:57:26;;;;;;;19.17;14.95;;;;;;;16.60;100.00;100997.53;4978433;28;20042;-78
2021/09/15 10:59:54;;;;;;;17.47;14.87;;;;;;;16.60;100.00;100989.59;4951847;28;20050;-78
2021/09/15 11:02:31;;;;;;;17.48;14.95;;;;;;;16.64;100.00;100994.34;4984039;28;20097;-80
2021/09/15 11:04:59;;;;;;;18.33;13.40;;;;;;;16.67;100.00;100996.63;4996377;28;20041;-78
2021/09/15 11:07:43;;;;;;;19.58;14.55;;;;;;;16.72;100.00;100993.44;4970323;28;20042;-80
2021/09/15 11:10:10;;;;;;;21.50;16.08;;;;;;;16.72;100.00;100993.44;4984883;28;20039;-79
2021/09/15 11:12:45;;;;;;;22.65;15.50;;;;;;;16.75;100.00;100985.13;4970731;28;20049;-75
2021/09/15 11:15:24;;;;;;;20.25;15.43;;;;;;;16.70;100.00;100985.66;4982392;28;20034;-79
2021/09/15 11:17:51;;;;;;;19.88;16.02;;;;;;;16.71;100.00;100983.84;5004655;28;20050;-78
2021/09/15 11:20:21;;;;;;;19.58;15.45;;;;;;;16.68;100.00;100969.13;4975041;28;20042;-78
2021/09/15 11:22:47;;;;;;;21.33;15.00;;;;;;;16.70;100.00;100977.72;4957183;28;20041;-78
2021/09/15 11:25:20;;;;;;;19.38;14.68;;;;;;;16.72;100.00;100983.66;4945718;28;20031;-79
2021/09/15 11:28:08;;;;;;;21.08;14.25;;;;;;;16.80;100.00;100980.13;4989664;28;20082;-80
2021/09/15 11:31:01;;;;;;;23.35;15.63;;;;;;;16.76;100.00;100975.34;4983430;28;20065;-79